Saint George Island, Florida
Current Conditions -  °F | °C
As of 7:53 PM on Sunday 21 Dec 2014 (Local Time) from KAAF Reporting Station
Light Rain Light Rain  
Wind Chill: 61°   Ceiling: 300
Heat Index: 61°   Visibility: 8mi
Dew Point: 57°   Wind: 3mph
Humidity: 87%   Direction: 50°NE
Pressure: 30.02"   Gusts: NA
Location:  29.8852°N, 84.8748°W
Report Text: KAAF 220053Z AUTO 05003KT 8SM -RA OVC003 16/14 A3002 RMK AO2 RAB26 SLP166 P0001 T01610139 TSNO
Loading
Personal Weather Stations






























Interactive Weather Map New forecast layout! Learn more

10-Day Weather Forecast

Advertisements
Track Severe Weather on mobile